sensor_id;sensor_type;location;lat;lon;timestamp;temperature;humidity
28484;DHT22;15704;48.834;8.736;2022-08-01T00:03:43;20.50;93.30
28484;DHT22;15704;48.834;8.736;2022-08-01T00:07:26;20.40;93.60
28484;DHT22;15704;48.834;8.736;2022-08-01T00:11:09;20.30;93.90
28484;DHT22;15704;48.834;8.736;2022-08-01T00:14:51;20.30;94.10
28484;DHT22;15704;48.834;8.736;2022-08-01T00:18:34;20.20;94.30
28484;DHT22;15704;48.834;8.736;2022-08-01T00:22:18;20.10;94.50
28484;DHT22;15704;48.834;8.736;2022-08-01T00:26:01;20.00;94.70
28484;DHT22;15704;48.834;8.736;2022-08-01T00:29:44;20.00;95.00
28484;DHT22;15704;48.834;8.736;2022-08-01T00:33:46;20.00;95.30
28484;DHT22;15704;48.834;8.736;2022-08-01T00:37:30;19.90;95.50
28484;DHT22;15704;48.834;8.736;2022-08-01T00:41:13;19.90;95.90
28484;DHT22;15704;48.834;8.736;2022-08-01T00:44:56;19.90;96.20
28484;DHT22;15704;48.834;8.736;2022-08-01T00:48:38;19.80;96.50
28484;DHT22;15704;48.834;8.736;2022-08-01T00:52:21;19.80;96.70
28484;DHT22;15704;48.834;8.736;2022-08-01T00:56:06;19.70;97.30
28484;DHT22;15704;48.834;8.736;2022-08-01T00:59:48;19.70;97.30
28484;DHT22;15704;48.834;8.736;2022-08-01T01:03:32;19.60;97.80
28484;DHT22;15704;48.834;8.736;2022-08-01T01:07:43;19.60;97.90
28484;DHT22;15704;48.834;8.736;2022-08-01T01:11:39;19.60;98.60
28484;DHT22;15704;48.834;8.736;2022-08-01T01:15:30;19.50;98.50
28484;DHT22;15704;48.834;8.736;2022-08-01T01:19:23;19.40;98.90
28484;DHT22;15704;48.834;8.736;2022-08-01T01:23:29;19.40;99.20
28484;DHT22;15704;48.834;8.736;2022-08-01T01:27:23;19.40;99.70
28484;DHT22;15704;48.834;8.736;2022-08-01T01:31:10;19.40;99.90
28484;DHT22;15704;48.834;8.736;2022-08-01T01:34:55;19.30;99.90
28484;DHT22;15704;48.834;8.736;2022-08-01T01:38:41;19.30;99.90
28484;DHT22;15704;48.834;8.736;2022-08-01T01:42:25;19.20;99.90
28484;DHT22;15704;48.834;8.736;2022-08-01T01:46:12;19.20;99.90
28484;DHT22;15704;48.834;8.736;2022-08-01T01:49:56;19.20;99.90
28484;DHT22;15704;48.834;8.736;2022-08-01T01:53:41;19.20;99.90
28484;DHT22;15704;48.834;8.736;2022-08-01T01:57:26;19.10;99.90
28484;DHT22;15704;48.834;8.736;2022-08-01T02:01:12;19.10;99.90
28484;DHT22;15704;48.834;8.736;2022-08-01T02:05:15;19.20;99.90
28484;DHT22;15704;48.834;8.736;2022-08-01T02:08:59;19.10;99.90
28484;DHT22;15704;48.834;8.736;2022-08-01T02:12:44;19.00;99.90
28484;DHT22;15704;48.834;8.736;2022-08-01T02:16:32;19.00;99.90
28484;DHT22;15704;48.834;8.736;2022-08-01T02:20:17;19.00;99.90
28484;DHT22;15704;48.834;8.736;2022-08-01T02:24:06;18.90;99.90
28484;DHT22;15704;48.834;8.736;2022-08-01T02:27:54;18.80;99.90
28484;DHT22;15704;48.834;8.736;2022-08-01T02:31:41;18.80;99.90
28484;DHT22;15704;48.834;8.736;2022-08-01T02:35:29;18.80;99.90
28484;DHT22;15704;48.834;8.736;2022-08-01T02:39:14;18.80;99.90
28484;DHT22;15704;48.834;8.736;2022-08-01T02:42:59;18.80;99.90
28484;DHT22;15704;48.834;8.736;2022-08-01T02:46:49;18.80;99.90
28484;DHT22;15704;48.834;8.736;2022-08-01T02:50:34;18.70;99.90
28484;DHT22;15704;48.834;8.736;2022-08-01T02:54:18;18.70;99.90
28484;DHT22;15704;48.834;8.736;2022-08-01T02:58:03;18.70;99.90
28484;DHT22;15704;48.834;8.736;2022-08-01T03:01:49;18.60;99.90
28484;DHT22;15704;48.834;8.736;2022-08-01T03:05:35;18.50;99.90
28484;DHT22;15704;48.834;8.736;2022-08-01T03:09:19;18.50;99.90
28484;DHT22;15704;48.834;8.736;2022-08-01T03:13:03;18.50;99.90
28484;DHT22;15704;48.834;8.736;2022-08-01T03:16:49;18.50;99.90
28484;DHT22;15704;48.834;8.736;2022-08-01T03:20:34;18.50;99.90
28484;DHT22;15704;48.834;8.736;2022-08-01T03:24:16;18.50;99.90
28484;DHT22;15704;48.834;8.736;2022-08-01T03:28:02;18.40;99.90
28484;DHT22;15704;48.834;8.736;2022-08-01T03:31:47;18.30;99.90
28484;DHT22;15704;48.834;8.736;2022-08-01T03:35:33;18.30;99.90
28484;DHT22;15704;48.834;8.736;2022-08-01T03:39:19;18.40;99.90
28484;DHT22;15704;48.834;8.736;2022-08-01T03:43:07;18.40;99.90
28484;DHT22;15704;48.834;8.736;2022-08-01T03:46:59;18.40;99.90
28484;DHT22;15704;48.834;8.736;2022-08-01T03:50:46;18.40;99.90
28484;DHT22;15704;48.834;8.736;2022-08-01T03:54:31;18.50;99.90
28484;DHT22;15704;48.834;8.736;2022-08-01T03:58:15;18.50;99.90
28484;DHT22;15704;48.834;8.736;2022-08-01T04:01:59;18.50;99.90
28484;DHT22;15704;48.834;8.736;2022-08-01T04:05:42;18.50;99.90
28484;DHT22;15704;48.834;8.736;2022-08-01T04:09:25;18.40;99.90
28484;DHT22;15704;48.834;8.736;2022-08-01T04:13:08;18.40;99.90
28484;DHT22;15704;48.834;8.736;2022-08-01T04:16:51;18.50;99.90
28484;DHT22;15704;48.834;8.736;2022-08-01T04:20:35;18.40;99.90
28484;DHT22;15704;48.834;8.736;2022-08-01T04:24:18;18.50;99.90
28484;DHT22;15704;48.834;8.736;2022-08-01T04:28:03;18.60;99.90
28484;DHT22;15704;48.834;8.736;2022-08-01T04:31:49;18.60;99.90
28484;DHT22;15704;48.834;8.736;2022-08-01T04:35:35;18.70;99.90
28484;DHT22;15704;48.834;8.736;2022-08-01T04:39:40;18.70;99.90
28484;DHT22;15704;48.834;8.736;2022-08-01T04:43:31;18.90;99.90
28484;DHT22;15704;48.834;8.736;2022-08-01T04:47:14;19.10;99.90
28484;DHT22;15704;48.834;8.736;2022-08-01T04:50:58;19.30;99.90
28484;DHT22;15704;48.834;8.736;2022-08-01T04:54:41;19.30;99.90
28484;DHT22;15704;48.834;8.736;2022-08-01T04:58:24;19.40;99.90
28484;DHT22;15704;48.834;8.736;2022-08-01T05:02:07;19.50;99.90
28484;DHT22;15704;48.834;8.736;2022-08-01T05:05:50;19.60;99.90
28484;DHT22;15704;48.834;8.736;2022-08-01T05:09:34;19.70;99.90
28484;DHT22;15704;48.834;8.736;2022-08-01T05:13:18;19.70;99.90
28484;DHT22;15704;48.834;8.736;2022-08-01T05:17:02;19.80;99.90
28484;DHT22;15704;48.834;8.736;2022-08-01T05:20:45;19.90;99.90
28484;DHT22;15704;48.834;8.736;2022-08-01T05:24:28;20.00;99.90
28484;DHT22;15704;48.834;8.736;2022-08-01T05:28:13;20.10;99.90
28484;DHT22;15704;48.834;8.736;2022-08-01T05:31:59;20.30;99.90
28484;DHT22;15704;48.834;8.736;2022-08-01T05:35:42;20.60;99.90
28484;DHT22;15704;48.834;8.736;2022-08-01T05:39:29;21.00;99.90
28484;DHT22;15704;48.834;8.736;2022-08-01T05:43:13;21.10;99.90
28484;DHT22;15704;48.834;8.736;2022-08-01T05:46:55;21.10;99.90
28484;DHT22;15704;48.834;8.736;2022-08-01T05:50:38;21.10;99.90
28484;DHT22;15704;48.834;8.736;2022-08-01T05:54:21;21.10;99.90
28484;DHT22;15704;48.834;8.736;2022-08-01T05:58:03;21.30;99.90
28484;DHT22;15704;48.834;8.736;2022-08-01T06:01:48;21.50;99.90
28484;DHT22;15704;48.834;8.736;2022-08-01T06:05:30;21.70;99.90
28484;DHT22;15704;48.834;8.736;2022-08-01T06:09:13;21.90;99.90
28484;DHT22;15704;48.834;8.736;2022-08-01T06:12:56;22.20;99.90
28484;DHT22;15704;48.834;8.736;2022-08-01T06:16:38;22.30;99.90
28484;DHT22;15704;48.834;8.736;2022-08-01T06:20:22;22.60;99.90
28484;DHT22;15704;48.834;8.736;2022-08-01T06:24:05;22.50;99.90
28484;DHT22;15704;48.834;8.736;2022-08-01T06:27:49;22.60;99.90
28484;DHT22;15704;48.834;8.736;2022-08-01T06:31:31;23.00;99.90
28484;DHT22;15704;48.834;8.736;2022-08-01T06:35:14;23.10;99.90
28484;DHT22;15704;48.834;8.736;2022-08-01T06:38:58;23.00;99.90
28484;DHT22;15704;48.834;8.736;2022-08-01T06:42:41;22.80;99.90
28484;DHT22;15704;48.834;8.736;2022-08-01T06:46:24;22.60;99.90
28484;DHT22;15704;48.834;8.736;2022-08-01T06:50:12;22.90;99.90
28484;DHT22;15704;48.834;8.736;2022-08-01T06:53:57;22.80;99.90
28484;DHT22;15704;48.834;8.736;2022-08-01T06:57:45;22.40;99.90
28484;DHT22;15704;48.834;8.736;2022-08-01T07:01:29;22.60;99.90
28484;DHT22;15704;48.834;8.736;2022-08-01T07:05:15;23.00;99.90
28484;DHT22;15704;48.834;8.736;2022-08-01T07:08:59;23.40;99.90
28484;DHT22;15704;48.834;8.736;2022-08-01T07:12:51;23.50;99.90
28484;DHT22;15704;48.834;8.736;2022-08-01T07:16:34;23.50;99.90
28484;DHT22;15704;48.834;8.736;2022-08-01T07:20:16;23.90;99.90
28484;DHT22;15704;48.834;8.736;2022-08-01T07:24:00;24.00;99.90
28484;DHT22;15704;48.834;8.736;2022-08-01T07:27:53;23.60;99.90
28484;DHT22;15704;48.834;8.736;2022-08-01T07:31:36;23.20;99.90
28484;DHT22;15704;48.834;8.736;2022-08-01T07:35:19;23.20;99.90
28484;DHT22;15704;48.834;8.736;2022-08-01T07:39:03;23.30;99.90
28484;DHT22;15704;48.834;8.736;2022-08-01T07:42:46;23.50;99.90
28484;DHT22;15704;48.834;8.736;2022-08-01T07:46:29;23.40;99.90
28484;DHT22;15704;48.834;8.736;2022-08-01T07:50:12;23.40;99.90
28484;DHT22;15704;48.834;8.736;2022-08-01T07:53:55;23.70;99.90
28484;DHT22;15704;48.834;8.736;2022-08-01T07:57:39;23.90;99.90
28484;DHT22;15704;48.834;8.736;2022-08-01T08:01:22;23.90;99.90
28484;DHT22;15704;48.834;8.736;2022-08-01T08:05:06;23.60;99.90
28484;DHT22;15704;48.834;8.736;2022-08-01T08:08:49;23.50;99.90
28484;DHT22;15704;48.834;8.736;2022-08-01T08:12:32;23.40;99.90
28484;DHT22;15704;48.834;8.736;2022-08-01T08:16:16;23.60;99.90
28484;DHT22;15704;48.834;8.736;2022-08-01T08:19:59;24.00;99.90
28484;DHT22;15704;48.834;8.736;2022-08-01T08:23:42;23.80;99.90
28484;DHT22;15704;48.834;8.736;2022-08-01T08:27:42;23.70;99.90
28484;DHT22;15704;48.834;8.736;2022-08-01T08:31:26;23.60;99.90
28484;DHT22;15704;48.834;8.736;2022-08-01T08:35:28;23.70;99.90
28484;DHT22;15704;48.834;8.736;2022-08-01T08:39:31;23.20;99.90
28484;DHT22;15704;48.834;8.736;2022-08-01T08:43:23;23.60;99.90
28484;DHT22;15704;48.834;8.736;2022-08-01T08:47:13;24.10;99.90
28484;DHT22;15704;48.834;8.736;2022-08-01T08:51:01;24.20;99.90
28484;DHT22;15704;48.834;8.736;2022-08-01T08:54:45;24.40;99.90
28484;DHT22;15704;48.834;8.736;2022-08-01T08:58:29;24.50;99.90
28484;DHT22;15704;48.834;8.736;2022-08-01T09:02:16;24.40;99.90
28484;DHT22;15704;48.834;8.736;2022-08-01T09:05:59;24.60;99.90
28484;DHT22;15704;48.834;8.736;2022-08-01T09:09:42;24.80;99.90
28484;DHT22;15704;48.834;8.736;2022-08-01T09:13:24;25.10;99.90
28484;DHT22;15704;48.834;8.736;2022-08-01T09:17:09;24.90;99.90
28484;DHT22;15704;48.834;8.736;2022-08-01T09:21:11;24.70;99.90
28484;DHT22;15704;48.834;8.736;2022-08-01T09:25:00;24.40;99.90
28484;DHT22;15704;48.834;8.736;2022-08-01T09:28:43;24.70;99.90
28484;DHT22;15704;48.834;8.736;2022-08-01T09:32:29;24.70;99.90
28484;DHT22;15704;48.834;8.736;2022-08-01T09:36:18;25.00;99.90
28484;DHT22;15704;48.834;8.736;2022-08-01T09:40:01;24.70;99.90
28484;DHT22;15704;48.834;8.736;2022-08-01T09:43:47;24.60;99.90
28484;DHT22;15704;48.834;8.736;2022-08-01T09:47:37;24.70;99.90
28484;DHT22;15704;48.834;8.736;2022-08-01T09:51:29;25.10;99.90
28484;DHT22;15704;48.834;8.736;2022-08-01T09:55:32;24.70;99.90
28484;DHT22;15704;48.834;8.736;2022-08-01T09:59:15;25.10;99.90
28484;DHT22;15704;48.834;8.736;2022-08-01T10:02:58;25.10;99.90
28484;DHT22;15704;48.834;8.736;2022-08-01T10:06:51;25.60;99.90
28484;DHT22;15704;48.834;8.736;2022-08-01T10:11:05;25.20;99.90
28484;DHT22;15704;48.834;8.736;2022-08-01T10:14:49;25.40;99.90
28484;DHT22;15704;48.834;8.736;2022-08-01T10:18:34;25.00;99.90
28484;DHT22;15704;48.834;8.736;2022-08-01T10:22:23;25.30;99.90
28484;DHT22;15704;48.834;8.736;2022-08-01T10:26:10;25.20;99.90
28484;DHT22;15704;48.834;8.736;2022-08-01T10:29:57;25.10;99.90
28484;DHT22;15704;48.834;8.736;2022-08-01T10:33:59;25.60;99.90
28484;DHT22;15704;48.834;8.736;2022-08-01T10:37:45;26.80;98.60
28484;DHT22;15704;48.834;8.736;2022-08-01T10:41:33;25.90;98.30
28484;DHT22;15704;48.834;8.736;2022-08-01T10:45:22;25.50;99.90
28484;DHT22;15704;48.834;8.736;2022-08-01T10:49:10;25.60;99.90
28484;DHT22;15704;48.834;8.736;2022-08-01T10:53:12;25.90;99.50
28484;DHT22;15704;48.834;8.736;2022-08-01T10:57:03;25.80;99.30
28484;DHT22;15704;48.834;8.736;2022-08-01T11:00:48;25.60;98.50
28484;DHT22;15704;48.834;8.736;2022-08-01T11:04:32;25.90;98.50
28484;DHT22;15704;48.834;8.736;2022-08-01T11:08:21;26.10;98.40
28484;DHT22;15704;48.834;8.736;2022-08-01T11:12:07;26.50;97.50
28484;DHT22;15704;48.834;8.736;2022-08-01T11:16:27;26.60;96.60
28484;DHT22;15704;48.834;8.736;2022-08-01T11:20:11;27.50;95.70
28484;DHT22;15704;48.834;8.736;2022-08-01T11:23:56;27.20;94.80
28484;DHT22;15704;48.834;8.736;2022-08-01T11:27:39;26.90;96.40
28484;DHT22;15704;48.834;8.736;2022-08-01T11:31:27;26.40;97.60
28484;DHT22;15704;48.834;8.736;2022-08-01T11:35:18;25.70;98.60
28484;DHT22;15704;48.834;8.736;2022-08-01T11:39:15;25.80;98.70
28484;DHT22;15704;48.834;8.736;2022-08-01T11:43:16;26.00;98.20
28484;DHT22;15704;48.834;8.736;2022-08-01T11:47:01;26.10;97.80
28484;DHT22;15704;48.834;8.736;2022-08-01T11:50:50;26.60;97.50
28484;DHT22;15704;48.834;8.736;2022-08-01T11:54:37;27.00;96.20
28484;DHT22;15704;48.834;8.736;2022-08-01T11:58:22;26.80;96.00
28484;DHT22;15704;48.834;8.736;2022-08-01T12:02:18;26.70;95.80
28484;DHT22;15704;48.834;8.736;2022-08-01T12:06:11;26.40;96.60
28484;DHT22;15704;48.834;8.736;2022-08-01T12:10:00;26.60;96.40
28484;DHT22;15704;48.834;8.736;2022-08-01T12:13:43;26.40;96.00
28484;DHT22;15704;48.834;8.736;2022-08-01T12:17:31;26.00;96.20
28484;DHT22;15704;48.834;8.736;2022-08-01T12:21:14;26.40;95.70
28484;DHT22;15704;48.834;8.736;2022-08-01T12:25:07;26.50;95.10
28484;DHT22;15704;48.834;8.736;2022-08-01T12:28:49;27.00;94.90
28484;DHT22;15704;48.834;8.736;2022-08-01T12:32:34;26.90;94.40
28484;DHT22;15704;48.834;8.736;2022-08-01T12:36:27;26.80;94.70
28484;DHT22;15704;48.834;8.736;2022-08-01T12:40:14;26.90;94.10
28484;DHT22;15704;48.834;8.736;2022-08-01T12:43:57;27.50;93.40
28484;DHT22;15704;48.834;8.736;2022-08-01T12:47:40;27.50;92.30
28484;DHT22;15704;48.834;8.736;2022-08-01T12:51:23;28.30;92.10
28484;DHT22;15704;48.834;8.736;2022-08-01T12:55:13;28.50;92.20
28484;DHT22;15704;48.834;8.736;2022-08-01T12:58:55;28.30;90.80
28484;DHT22;15704;48.834;8.736;2022-08-01T13:02:39;27.70;91.60
28484;DHT22;15704;48.834;8.736;2022-08-01T13:06:22;27.40;92.00
28484;DHT22;15704;48.834;8.736;2022-08-01T13:10:05;27.70;91.60
28484;DHT22;15704;48.834;8.736;2022-08-01T13:13:51;27.60;91.40
28484;DHT22;15704;48.834;8.736;2022-08-01T13:17:35;27.40;91.70
28484;DHT22;15704;48.834;8.736;2022-08-01T13:21:21;27.50;91.50
28484;DHT22;15704;48.834;8.736;2022-08-01T13:25:12;27.40;91.70
28484;DHT22;15704;48.834;8.736;2022-08-01T13:29:05;27.60;92.00
28484;DHT22;15704;48.834;8.736;2022-08-01T13:32:57;27.60;92.50
28484;DHT22;15704;48.834;8.736;2022-08-01T13:36:41;27.80;91.90
28484;DHT22;15704;48.834;8.736;2022-08-01T13:40:29;27.50;92.10
28484;DHT22;15704;48.834;8.736;2022-08-01T13:44:14;27.70;92.00
28484;DHT22;15704;48.834;8.736;2022-08-01T13:47:56;27.70;91.80
28484;DHT22;15704;48.834;8.736;2022-08-01T13:51:53;27.50;91.70
28484;DHT22;15704;48.834;8.736;2022-08-01T13:55:36;28.00;91.40
28484;DHT22;15704;48.834;8.736;2022-08-01T13:59:21;27.50;91.60
28484;DHT22;15704;48.834;8.736;2022-08-01T14:03:04;27.90;91.40
28484;DHT22;15704;48.834;8.736;2022-08-01T14:06:47;27.80;91.50
28484;DHT22;15704;48.834;8.736;2022-08-01T14:10:29;27.80;91.70
28484;DHT22;15704;48.834;8.736;2022-08-01T14:14:13;28.30;91.10
28484;DHT22;15704;48.834;8.736;2022-08-01T14:17:57;28.70;90.60
28484;DHT22;15704;48.834;8.736;2022-08-01T14:21:40;28.60;90.20
28484;DHT22;15704;48.834;8.736;2022-08-01T14:25:23;27.70;90.80
28484;DHT22;15704;48.834;8.736;2022-08-01T14:29:25;27.40;90.80
28484;DHT22;15704;48.834;8.736;2022-08-01T14:33:29;28.10;90.40
28484;DHT22;15704;48.834;8.736;2022-08-01T14:37:14;28.30;90.30
28484;DHT22;15704;48.834;8.736;2022-08-01T14:40:57;28.60;89.10
28484;DHT22;15704;48.834;8.736;2022-08-01T14:44:41;28.60;89.30
28484;DHT22;15704;48.834;8.736;2022-08-01T14:48:31;28.30;88.60
28484;DHT22;15704;48.834;8.736;2022-08-01T14:52:14;28.40;89.00
28484;DHT22;15704;48.834;8.736;2022-08-01T14:55:57;27.60;89.20
28484;DHT22;15704;48.834;8.736;2022-08-01T14:59:39;27.70;89.20
28484;DHT22;15704;48.834;8.736;2022-08-01T15:03:22;27.40;89.60
28484;DHT22;15704;48.834;8.736;2022-08-01T15:07:06;26.80;90.40
28484;DHT22;15704;48.834;8.736;2022-08-01T15:10:49;26.70;90.90
28484;DHT22;15704;48.834;8.736;2022-08-01T15:14:32;26.60;91.30
28484;DHT22;15704;48.834;8.736;2022-08-01T15:18:30;26.60;91.20
28484;DHT22;15704;48.834;8.736;2022-08-01T15:22:16;26.60;91.60
28484;DHT22;15704;48.834;8.736;2022-08-01T15:25:59;26.70;91.40
28484;DHT22;15704;48.834;8.736;2022-08-01T15:29:42;26.90;90.90
28484;DHT22;15704;48.834;8.736;2022-08-01T15:33:24;27.00;91.00
28484;DHT22;15704;48.834;8.736;2022-08-01T15:37:07;26.90;91.30
28484;DHT22;15704;48.834;8.736;2022-08-01T15:40:52;27.10;91.10
28484;DHT22;15704;48.834;8.736;2022-08-01T15:44:35;27.20;90.70
28484;DHT22;15704;48.834;8.736;2022-08-01T15:48:17;26.80;91.00
28484;DHT22;15704;48.834;8.736;2022-08-01T15:52:00;26.70;91.10
28484;DHT22;15704;48.834;8.736;2022-08-01T15:55:43;26.70;91.20
28484;DHT22;15704;48.834;8.736;2022-08-01T15:59:34;26.80;91.30
28484;DHT22;15704;48.834;8.736;2022-08-01T16:03:22;26.80;91.40
28484;DHT22;15704;48.834;8.736;2022-08-01T16:07:05;27.00;91.40
28484;DHT22;15704;48.834;8.736;2022-08-01T16:10:48;26.70;91.50
28484;DHT22;15704;48.834;8.736;2022-08-01T16:14:31;26.80;91.40
28484;DHT22;15704;48.834;8.736;2022-08-01T16:18:15;26.70;91.20
28484;DHT22;15704;48.834;8.736;2022-08-01T16:21:58;26.30;91.80
28484;DHT22;15704;48.834;8.736;2022-08-01T16:25:41;25.90;92.30
28484;DHT22;15704;48.834;8.736;2022-08-01T16:29:25;26.00;92.60
28484;DHT22;15704;48.834;8.736;2022-08-01T16:33:11;26.10;92.60
28484;DHT22;15704;48.834;8.736;2022-08-01T16:37:03;25.90;92.80
28484;DHT22;15704;48.834;8.736;2022-08-01T16:40:48;25.50;93.20
28484;DHT22;15704;48.834;8.736;2022-08-01T16:44:31;25.50;93.60
28484;DHT22;15704;48.834;8.736;2022-08-01T16:48:15;25.80;93.60
28484;DHT22;15704;48.834;8.736;2022-08-01T16:51:58;25.90;93.40
28484;DHT22;15704;48.834;8.736;2022-08-01T16:55:43;25.90;93.40
28484;DHT22;15704;48.834;8.736;2022-08-01T16:59:31;26.10;93.60
28484;DHT22;15704;48.834;8.736;2022-08-01T17:03:14;25.80;93.90
28484;DHT22;15704;48.834;8.736;2022-08-01T17:07:16;25.90;94.00
28484;DHT22;15704;48.834;8.736;2022-08-01T17:11:00;25.80;94.10
28484;DHT22;15704;48.834;8.736;2022-08-01T17:14:45;25.10;95.00
28484;DHT22;15704;48.834;8.736;2022-08-01T17:18:28;24.90;95.50
28484;DHT22;15704;48.834;8.736;2022-08-01T17:22:11;24.70;96.00
28484;DHT22;15704;48.834;8.736;2022-08-01T17:25:54;24.40;97.00
28484;DHT22;15704;48.834;8.736;2022-08-01T17:29:38;24.30;97.00
28484;DHT22;15704;48.834;8.736;2022-08-01T17:37:26;24.30;97.10
28484;DHT22;15704;48.834;8.736;2022-08-01T17:41:09;24.30;97.10
28484;DHT22;15704;48.834;8.736;2022-08-01T17:44:53;24.30;97.20
28484;DHT22;15704;48.834;8.736;2022-08-01T17:48:40;24.20;97.90
28484;DHT22;15704;48.834;8.736;2022-08-01T17:52:25;24.00;97.80
28484;DHT22;15704;48.834;8.736;2022-08-01T17:56:10;24.00;97.80
28484;DHT22;15704;48.834;8.736;2022-08-01T17:59:54;23.80;98.10
28484;DHT22;15704;48.834;8.736;2022-08-01T18:03:36;23.90;98.40
28484;DHT22;15704;48.834;8.736;2022-08-01T18:07:21;23.60;98.50
28484;DHT22;15704;48.834;8.736;2022-08-01T18:11:24;23.60;98.70
28484;DHT22;15704;48.834;8.736;2022-08-01T18:15:09;23.60;98.60
28484;DHT22;15704;48.834;8.736;2022-08-01T18:18:55;23.60;98.90
28484;DHT22;15704;48.834;8.736;2022-08-01T18:22:38;23.50;98.80
28484;DHT22;15704;48.834;8.736;2022-08-01T18:26:22;23.50;98.60
28484;DHT22;15704;48.834;8.736;2022-08-01T18:30:06;23.40;98.40
28484;DHT22;15704;48.834;8.736;2022-08-01T18:33:50;23.30;98.60
28484;DHT22;15704;48.834;8.736;2022-08-01T18:37:33;23.20;99.20
28484;DHT22;15704;48.834;8.736;2022-08-01T18:41:23;23.30;98.90
28484;DHT22;15704;48.834;8.736;2022-08-01T18:45:07;23.20;99.00
28484;DHT22;15704;48.834;8.736;2022-08-01T18:48:52;23.00;99.40
28484;DHT22;15704;48.834;8.736;2022-08-01T18:52:35;23.00;99.50
28484;DHT22;15704;48.834;8.736;2022-08-01T18:56:17;22.90;99.80
28484;DHT22;15704;48.834;8.736;2022-08-01T19:00:00;22.90;99.90
28484;DHT22;15704;48.834;8.736;2022-08-01T19:03:42;22.80;99.90
28484;DHT22;15704;48.834;8.736;2022-08-01T19:07:27;22.80;99.90
28484;DHT22;15704;48.834;8.736;2022-08-01T19:11:30;22.70;99.90
28484;DHT22;15704;48.834;8.736;2022-08-01T19:15:13;22.70;99.90
28484;DHT22;15704;48.834;8.736;2022-08-01T19:18:56;22.60;99.90
28484;DHT22;15704;48.834;8.736;2022-08-01T19:22:40;22.50;99.90
28484;DHT22;15704;48.834;8.736;2022-08-01T19:26:24;22.40;99.90
28484;DHT22;15704;48.834;8.736;2022-08-01T19:30:09;22.40;99.90
28484;DHT22;15704;48.834;8.736;2022-08-01T19:33:53;22.20;99.90
28484;DHT22;15704;48.834;8.736;2022-08-01T19:37:37;22.20;99.90
28484;DHT22;15704;48.834;8.736;2022-08-01T19:41:22;22.10;99.90
28484;DHT22;15704;48.834;8.736;2022-08-01T19:45:08;22.00;99.90
28484;DHT22;15704;48.834;8.736;2022-08-01T19:48:54;22.00;99.90
28484;DHT22;15704;48.834;8.736;2022-08-01T19:52:36;22.00;99.90
28484;DHT22;15704;48.834;8.736;2022-08-01T19:56:20;21.90;99.90
28484;DHT22;15704;48.834;8.736;2022-08-01T20:00:05;21.80;99.90
28484;DHT22;15704;48.834;8.736;2022-08-01T20:03:54;21.80;99.90
28484;DHT22;15704;48.834;8.736;2022-08-01T20:07:40;21.70;99.90
28484;DHT22;15704;48.834;8.736;2022-08-01T20:11:23;21.70;99.90
28484;DHT22;15704;48.834;8.736;2022-08-01T20:15:09;21.70;99.90
28484;DHT22;15704;48.834;8.736;2022-08-01T20:18:53;21.70;99.90
28484;DHT22;15704;48.834;8.736;2022-08-01T20:22:37;21.70;99.90
28484;DHT22;15704;48.834;8.736;2022-08-01T20:26:22;21.60;99.90
28484;DHT22;15704;48.834;8.736;2022-08-01T20:30:06;21.60;99.90
28484;DHT22;15704;48.834;8.736;2022-08-01T20:33:52;21.50;99.90
28484;DHT22;15704;48.834;8.736;2022-08-01T20:37:37;21.50;99.90
28484;DHT22;15704;48.834;8.736;2022-08-01T20:41:41;21.60;99.90
28484;DHT22;15704;48.834;8.736;2022-08-01T20:45:26;21.60;99.90
28484;DHT22;15704;48.834;8.736;2022-08-01T20:49:11;21.70;99.90
28484;DHT22;15704;48.834;8.736;2022-08-01T20:52:54;21.70;99.90
28484;DHT22;15704;48.834;8.736;2022-08-01T20:56:38;21.70;99.90
28484;DHT22;15704;48.834;8.736;2022-08-01T21:00:23;21.70;99.90
28484;DHT22;15704;48.834;8.736;2022-08-01T21:04:47;21.50;99.90
28484;DHT22;15704;48.834;8.736;2022-08-01T21:08:36;21.40;99.90
28484;DHT22;15704;48.834;8.736;2022-08-01T21:12:25;21.30;99.90
28484;DHT22;15704;48.834;8.736;2022-08-01T21:16:11;21.20;99.90
28484;DHT22;15704;48.834;8.736;2022-08-01T21:20:07;21.20;99.90
28484;DHT22;15704;48.834;8.736;2022-08-01T21:23:58;21.10;99.90
28484;DHT22;15704;48.834;8.736;2022-08-01T21:27:43;21.00;99.90
28484;DHT22;15704;48.834;8.736;2022-08-01T21:31:31;21.00;99.90
28484;DHT22;15704;48.834;8.736;2022-08-01T21:35:24;20.90;99.90
28484;DHT22;15704;48.834;8.736;2022-08-01T21:39:07;20.70;99.90
28484;DHT22;15704;48.834;8.736;2022-08-01T21:42:51;20.60;99.90
28484;DHT22;15704;48.834;8.736;2022-08-01T21:46:34;20.50;99.90
28484;DHT22;15704;48.834;8.736;2022-08-01T21:50:17;20.40;99.90
28484;DHT22;15704;48.834;8.736;2022-08-01T21:54:06;20.30;99.90
28484;DHT22;15704;48.834;8.736;2022-08-01T21:58:00;20.20;99.90
28484;DHT22;15704;48.834;8.736;2022-08-01T22:01:50;20.10;99.90
28484;DHT22;15704;48.834;8.736;2022-08-01T22:05:35;20.10;99.90
28484;DHT22;15704;48.834;8.736;2022-08-01T22:09:32;20.00;99.90
28484;DHT22;15704;48.834;8.736;2022-08-01T22:13:15;20.00;99.90
28484;DHT22;15704;48.834;8.736;2022-08-01T22:16:59;19.90;99.90
28484;DHT22;15704;48.834;8.736;2022-08-01T22:20:42;19.90;99.90
28484;DHT22;15704;48.834;8.736;2022-08-01T22:24:28;20.00;99.90
28484;DHT22;15704;48.834;8.736;2022-08-01T22:28:15;19.90;99.90
28484;DHT22;15704;48.834;8.736;2022-08-01T22:31:58;19.90;99.90
28484;DHT22;15704;48.834;8.736;2022-08-01T22:52:45;19.20;99.90
28484;DHT22;15704;48.834;8.736;2022-08-01T22:56:35;19.00;99.90
28484;DHT22;15704;48.834;8.736;2022-08-01T23:00:19;19.00;99.90
28484;DHT22;15704;48.834;8.736;2022-08-01T23:04:02;19.00;99.90
28484;DHT22;15704;48.834;8.736;2022-08-01T23:07:49;19.00;99.90
28484;DHT22;15704;48.834;8.736;2022-08-01T23:11:33;19.10;99.90
28484;DHT22;15704;48.834;8.736;2022-08-01T23:15:16;19.10;99.90
28484;DHT22;15704;48.834;8.736;2022-08-01T23:18:59;19.00;99.90
28484;DHT22;15704;48.834;8.736;2022-08-01T23:22:42;19.00;99.90
28484;DHT22;15704;48.834;8.736;2022-08-01T23:26:28;19.00;99.90
28484;DHT22;15704;48.834;8.736;2022-08-01T23:30:12;18.90;99.90
28484;DHT22;15704;48.834;8.736;2022-08-01T23:33:55;18.90;99.90
28484;DHT22;15704;48.834;8.736;2022-08-01T23:37:37;18.80;99.90
28484;DHT22;15704;48.834;8.736;2022-08-01T23:41:20;18.80;99.90
28484;DHT22;15704;48.834;8.736;2022-08-01T23:45:05;18.80;99.90
28484;DHT22;15704;48.834;8.736;2022-08-01T23:48:48;18.70;99.90
28484;DHT22;15704;48.834;8.736;2022-08-01T23:52:31;18.70;99.90
28484;DHT22;15704;48.834;8.736;2022-08-01T23:56:14;18.60;99.90
